ANA2158 RJAA-ROAH
Flight info
| Callsign | ANA2158 |
|---|---|
| Flight time | N/A |
| Altitude | 36000 |
| Route | SAMUS Y84 HCE Y86 YULIA Y293 TONAR Y525 IHEYA |
| Aircraft | A320/M-SDE3FGHIRWY/LB1 |
Departure
| Time | 2026-05-05 17:34 |
|---|---|
| Airport | Narita International Airport (RJAA) |
Arrival
| Time | N/A |
|---|---|
| Airport | Naha International Airport (ROAH) |
| Time | Latitude | Longitude | Altitude | Speed | Heading |
|---|---|---|---|---|---|
| 2026-05-05 16:47 | 35.76395 | 140.38235 | 146 ft | 0 kts | 60° |
| 2026-05-05 17:19 | 35.76389 | 140.38221 | 146 ft | 4 kts | 60° |
| 2026-05-05 17:19 | 35.76375 | 140.38192 | 146 ft | 4 kts | 60° |
| 2026-05-05 17:19 | 35.76363 | 140.38164 | 146 ft | 4 kts | 70° |
| 2026-05-05 17:19 | 35.76357 | 140.38132 | 146 ft | 4 kts | 97° |
| 2026-05-05 17:20 | 35.76366 | 140.38107 | 146 ft | 2 kts | 147° |
| 2026-05-05 17:20 | 35.76371 | 140.38103 | 146 ft | 0 kts | 148° |
| 2026-05-05 17:23 | 35.76370 | 140.38103 | 146 ft | 2 kts | 148° |
| 2026-05-05 17:23 | 35.76316 | 140.38143 | 146 ft | 13 kts | 151° |
| 2026-05-05 17:23 | 35.76251 | 140.38102 | 145 ft | 13 kts | 274° |
| 2026-05-05 17:23 | 35.76305 | 140.38032 | 145 ft | 11 kts | 327° |
| 2026-05-05 17:24 | 35.76366 | 140.37987 | 145 ft | 9 kts | 330° |
| 2026-05-05 17:24 | 35.76418 | 140.37950 | 145 ft | 8 kts | 329° |
| 2026-05-05 17:24 | 35.76481 | 140.37905 | 145 ft | 13 kts | 330° |
| 2026-05-05 17:24 | 35.76551 | 140.37848 | 145 ft | 12 kts | 316° |
| 2026-05-05 17:25 | 35.76565 | 140.37754 | 144 ft | 11 kts | 271° |
| 2026-05-05 17:25 | 35.76587 | 140.37703 | 144 ft | 10 kts | 316° |
| 2026-05-05 17:25 | 35.76659 | 140.37647 | 144 ft | 11 kts | 329° |
| 2026-05-05 17:25 | 35.76753 | 140.37579 | 144 ft | 19 kts | 330° |
| 2026-05-05 17:26 | 35.76871 | 140.37495 | 143 ft | 20 kts | 328° |
| 2026-05-05 17:26 | 35.76987 | 140.37410 | 143 ft | 19 kts | 329° |
| 2026-05-05 17:26 | 35.77104 | 140.37324 | 143 ft | 20 kts | 329° |
| 2026-05-05 17:26 | 35.77222 | 140.37237 | 143 ft | 20 kts | 329° |
| 2026-05-05 17:27 | 35.77339 | 140.37152 | 143 ft | 20 kts | 329° |
| 2026-05-05 17:27 | 35.77463 | 140.37065 | 143 ft | 21 kts | 327° |
| 2026-05-05 17:27 | 35.77487 | 140.36972 | 141 ft | 0 kts | 252° |
| 2026-05-05 17:32 | 35.77484 | 140.36965 | 140 ft | 5 kts | 244° |
| 2026-05-05 17:33 | 35.77448 | 140.36889 | 136 ft | 14 kts | 230° |
| 2026-05-05 17:33 | 35.77311 | 140.36924 | 134 ft | 42 kts | 151° |
| 2026-05-05 17:33 | 35.76849 | 140.37260 | 137 ft | 109 kts | 149° |
| 2026-05-05 17:33 | 35.76038 | 140.37846 | 140 ft | 160 kts | 150° |
| 2026-05-05 17:34 | 35.75037 | 140.38557 | 662 ft | 164 kts | 151° |
| 2026-05-05 17:34 | 35.74050 | 140.39270 | 1399 ft | 164 kts | 154° |
| 2026-05-05 17:34 | 35.73069 | 140.39980 | 2083 ft | 167 kts | 154° |
| 2026-05-05 17:34 | 35.71996 | 140.40750 | 2397 ft | 189 kts | 154° |
| 2026-05-05 17:35 | 35.70803 | 140.41595 | 2879 ft | 206 kts | 154° |
| 2026-05-05 17:35 | 35.69502 | 140.42525 | 3313 ft | 227 kts | 153° |
| 2026-05-05 17:35 | 35.68075 | 140.43558 | 3819 ft | 247 kts | 153° |
| 2026-05-05 17:35 | 35.66571 | 140.44646 | 4565 ft | 255 kts | 152° |
| 2026-05-05 17:36 | 35.65028 | 140.45767 | 5386 ft | 260 kts | 152° |
| 2026-05-05 17:36 | 35.63448 | 140.46909 | 6144 ft | 267 kts | 152° |
| 2026-05-05 17:36 | 35.61848 | 140.48058 | 6905 ft | 273 kts | 151° |
| 2026-05-05 17:36 | 35.60194 | 140.49238 | 7671 ft | 277 kts | 152° |
| 2026-05-05 17:37 | 35.58519 | 140.50429 | 8467 ft | 280 kts | 152° |
| 2026-05-05 17:37 | 35.57406 | 140.51220 | 9007 ft | 281 kts | 152° |
| 2026-05-05 17:37 | 35.55121 | 140.52842 | 10041 ft | 285 kts | 152° |
| 2026-05-05 17:37 | 35.53397 | 140.54088 | 10695 ft | 290 kts | 151° |
| 2026-05-05 17:38 | 35.51648 | 140.55369 | 11297 ft | 299 kts | 151° |
| 2026-05-05 17:38 | 35.49801 | 140.56714 | 11576 ft | 319 kts | 152° |
| 2026-05-05 17:38 | 35.47831 | 140.58134 | 11838 ft | 338 kts | 151° |
| 2026-05-05 17:38 | 35.45741 | 140.59634 | 12039 ft | 358 kts | 151° |
| 2026-05-05 17:39 | 35.43646 | 140.61372 | 12487 ft | 369 kts | 142° |
| 2026-05-05 17:39 | 35.41821 | 140.63618 | 13074 ft | 376 kts | 131° |
| 2026-05-05 17:39 | 35.40811 | 140.65354 | 13494 ft | 380 kts | 123° |
| 2026-05-05 17:39 | 35.39126 | 140.69209 | 14304 ft | 385 kts | 122° |
| 2026-05-05 17:40 | 35.37731 | 140.71952 | 14968 ft | 384 kts | 127° |
| 2026-05-05 17:40 | 35.36679 | 140.73737 | 15459 ft | 382 kts | 130° |
| 2026-05-05 17:40 | 35.34485 | 140.77128 | 16186 ft | 388 kts | 130° |
| 2026-05-05 17:40 | 35.32830 | 140.79764 | 16692 ft | 393 kts | 129° |
| 2026-05-05 17:41 | 35.31223 | 140.82476 | 17224 ft | 398 kts | 128° |
| 2026-05-05 17:41 | 35.29628 | 140.85292 | 17761 ft | 402 kts | 127° |
| 2026-05-05 17:41 | 35.28565 | 140.87216 | 18120 ft | 405 kts | 127° |
| 2026-05-05 17:41 | 35.26989 | 140.90093 | 18649 ft | 409 kts | 127° |
| 2026-05-05 17:42 | 35.25416 | 140.92963 | 19073 ft | 414 kts | 127° |
| 2026-05-05 17:42 | 35.23745 | 140.95845 | 19463 ft | 417 kts | 133° |
| 2026-05-05 17:42 | 35.21703 | 140.98352 | 19849 ft | 417 kts | 144° |
| 2026-05-05 17:42 | 35.19316 | 141.00327 | 20208 ft | 417 kts | 155° |
| 2026-05-05 17:43 | 35.16640 | 141.01706 | 20585 ft | 415 kts | 167° |
| 2026-05-05 17:43 | 35.13828 | 141.02449 | 20963 ft | 413 kts | 178° |
| 2026-05-05 17:43 | 35.10965 | 141.02702 | 21369 ft | 414 kts | 181° |
| 2026-05-05 17:43 | 35.08080 | 141.02927 | 21784 ft | 417 kts | 182° |
| 2026-05-05 17:44 | 35.05176 | 141.03160 | 22185 ft | 420 kts | 182° |
| 2026-05-05 17:44 | 35.02256 | 141.03396 | 22581 ft | 422 kts | 182° |
| 2026-05-05 17:44 | 34.99315 | 141.03632 | 22964 ft | 425 kts | 183° |
| 2026-05-05 17:44 | 34.96352 | 141.03868 | 23336 ft | 427 kts | 183° |
| 2026-05-05 17:45 | 34.93378 | 141.04103 | 23728 ft | 429 kts | 184° |
| 2026-05-05 17:45 | 34.90392 | 141.04334 | 24061 ft | 431 kts | 184° |
| 2026-05-05 17:45 | 34.87391 | 141.04565 | 24372 ft | 433 kts | 184° |
| 2026-05-05 17:45 | 34.84378 | 141.04800 | 24685 ft | 435 kts | 184° |
| 2026-05-05 17:46 | 34.81358 | 141.05036 | 24992 ft | 436 kts | 184° |
| 2026-05-05 17:46 | 34.78325 | 141.05274 | 25270 ft | 437 kts | 184° |
| 2026-05-05 17:46 | 34.75290 | 141.05511 | 25580 ft | 438 kts | 184° |
| 2026-05-05 17:46 | 34.72239 | 141.05750 | 25879 ft | 439 kts | 185° |
| 2026-05-05 17:47 | 34.69213 | 141.05988 | 26157 ft | 441 kts | 185° |
| 2026-05-05 17:47 | 34.66148 | 141.06227 | 26431 ft | 442 kts | 185° |
| 2026-05-05 17:47 | 34.63092 | 141.06331 | 26694 ft | 436 kts | 192° |
| 2026-05-05 17:47 | 34.60123 | 141.05853 | 26951 ft | 426 kts | 201° |
| 2026-05-05 17:48 | 34.57335 | 141.04784 | 27180 ft | 417 kts | 210° |
| 2026-05-05 17:48 | 34.54781 | 141.03186 | 27431 ft | 410 kts | 218° |
| 2026-05-05 17:48 | 34.52516 | 141.01140 | 27678 ft | 404 kts | 226° |
| 2026-05-05 17:48 | 34.50494 | 140.98796 | 27980 ft | 401 kts | 229° |
| 2026-05-05 17:49 | 34.48495 | 140.96452 | 28354 ft | 398 kts | 229° |
| 2026-05-05 17:49 | 34.46503 | 140.94127 | 28748 ft | 395 kts | 229° |
| 2026-05-05 17:49 | 34.44535 | 140.91830 | 29144 ft | 392 kts | 229° |
| 2026-05-05 17:49 | 34.42577 | 140.89546 | 29556 ft | 389 kts | 229° |
| 2026-05-05 17:50 | 34.40637 | 140.87282 | 29959 ft | 386 kts | 229° |
| 2026-05-05 17:50 | 34.38715 | 140.85039 | 30343 ft | 383 kts | 229° |
| 2026-05-05 17:50 | 34.36805 | 140.82811 | 30672 ft | 380 kts | 229° |
| 2026-05-05 17:50 | 34.34899 | 140.80593 | 30978 ft | 379 kts | 229° |
| 2026-05-05 17:51 | 34.33002 | 140.78392 | 31274 ft | 377 kts | 229° |
| 2026-05-05 17:51 | 34.31113 | 140.76200 | 31569 ft | 376 kts | 229° |
| 2026-05-05 17:51 | 34.29235 | 140.74018 | 31862 ft | 374 kts | 229° |
| 2026-05-05 17:51 | 34.27364 | 140.71840 | 32158 ft | 373 kts | 229° |
| 2026-05-05 17:52 | 34.25495 | 140.69667 | 32447 ft | 372 kts | 229° |
| 2026-05-05 17:52 | 34.23630 | 140.67506 | 32650 ft | 372 kts | 229° |
| 2026-05-05 17:52 | 34.21779 | 140.65365 | 32840 ft | 374 kts | 229° |
| 2026-05-05 17:52 | 34.19900 | 140.63196 | 33071 ft | 374 kts | 229° |
| 2026-05-05 17:53 | 34.18022 | 140.61026 | 33338 ft | 373 kts | 229° |
| 2026-05-05 17:53 | 34.16145 | 140.58858 | 33611 ft | 372 kts | 229° |
| 2026-05-05 17:53 | 34.14305 | 140.56733 | 33890 ft | 371 kts | 229° |
| 2026-05-05 17:53 | 34.12413 | 140.54551 | 34180 ft | 370 kts | 230° |
| 2026-05-05 17:54 | 34.10556 | 140.52408 | 34435 ft | 369 kts | 230° |
| 2026-05-05 17:54 | 34.08701 | 140.50267 | 34673 ft | 368 kts | 230° |
| 2026-05-05 17:54 | 34.06852 | 140.48139 | 34913 ft | 367 kts | 230° |
| 2026-05-05 17:54 | 34.04981 | 140.45987 | 35150 ft | 366 kts | 230° |
| 2026-05-05 17:55 | 34.03216 | 140.43808 | 35369 ft | 360 kts | 238° |
| 2026-05-05 17:55 | 34.01961 | 140.41239 | 35576 ft | 354 kts | 246° |
| 2026-05-05 17:55 | 34.00883 | 140.38581 | 35776 ft | 354 kts | 246° |
| 2026-05-05 17:55 | 33.99816 | 140.35913 | 35983 ft | 353 kts | 246° |
| 2026-05-05 17:56 | 33.98755 | 140.33248 | 36178 ft | 352 kts | 246° |
| 2026-05-05 17:56 | 33.96635 | 140.27931 | 36267 ft | 358 kts | 246° |
| 2026-05-05 17:57 | 33.94458 | 140.22489 | 36267 ft | 363 kts | 246° |
| 2026-05-05 17:57 | 33.92244 | 140.16985 | 36254 ft | 367 kts | 246° |
| 2026-05-05 17:58 | 33.90006 | 140.11433 | 36262 ft | 370 kts | 246° |
| 2026-05-05 17:58 | 33.87751 | 140.05843 | 36259 ft | 372 kts | 246° |
| 2026-05-05 17:59 | 33.85492 | 140.00231 | 36256 ft | 373 kts | 246° |
| 2026-05-05 17:59 | 33.83218 | 139.94609 | 36248 ft | 374 kts | 246° |
| 2026-05-05 18:00 | 33.80935 | 139.88984 | 36252 ft | 375 kts | 246° |
| 2026-05-05 18:00 | 33.78641 | 139.83346 | 36260 ft | 376 kts | 246° |
| 2026-05-05 18:01 | 33.76346 | 139.77722 | 36254 ft | 375 kts | 246° |
| 2026-05-05 18:01 | 33.74062 | 139.72088 | 36249 ft | 375 kts | 246° |
| 2026-05-05 18:01 | 33.72937 | 139.69322 | 35712 ft | 372 kts | 246° |
| 2026-05-05 18:02 | 33.71795 | 139.66524 | 34825 ft | 374 kts | 245° |
| 2026-05-05 18:02 | 33.70643 | 139.63707 | 34454 ft | 378 kts | 245° |
| 2026-05-05 18:02 | 33.69476 | 139.60859 | 34288 ft | 381 kts | 245° |
| 2026-05-05 18:03 | 33.67130 | 139.55130 | 34250 ft | 384 kts | 245° |
| 2026-05-05 18:03 | 33.64776 | 139.49378 | 34247 ft | 385 kts | 245° |
| 2026-05-05 18:04 | 33.62411 | 139.43618 | 34245 ft | 385 kts | 245° |
| 2026-05-05 18:04 | 33.60042 | 139.37857 | 34245 ft | 385 kts | 245° |
| 2026-05-05 18:05 | 33.57670 | 139.32112 | 34246 ft | 385 kts | 245° |
| 2026-05-05 18:05 | 33.55297 | 139.26364 | 34247 ft | 385 kts | 245° |
| 2026-05-05 18:06 | 33.52925 | 139.20615 | 34242 ft | 385 kts | 245° |
| 2026-05-05 18:06 | 33.50554 | 139.14878 | 34245 ft | 385 kts | 245° |
| 2026-05-05 18:07 | 33.48182 | 139.09173 | 34245 ft | 385 kts | 245° |
| 2026-05-05 18:07 | 33.45773 | 139.03380 | 34238 ft | 387 kts | 245° |
| 2026-05-05 18:08 | 33.43391 | 138.97653 | 34240 ft | 387 kts | 245° |
| 2026-05-05 18:08 | 33.40982 | 138.91888 | 34241 ft | 387 kts | 244° |
| 2026-05-05 18:09 | 33.38577 | 138.86119 | 34241 ft | 387 kts | 244° |
| 2026-05-05 18:09 | 33.36159 | 138.80340 | 34239 ft | 389 kts | 244° |
| 2026-05-05 18:10 | 33.33739 | 138.74551 | 34239 ft | 389 kts | 244° |
| 2026-05-05 18:10 | 33.31319 | 138.68792 | 34239 ft | 389 kts | 244° |
| 2026-05-05 18:11 | 33.28881 | 138.63000 | 34234 ft | 389 kts | 244° |
| 2026-05-05 18:11 | 33.26450 | 138.57223 | 34236 ft | 389 kts | 244° |
| 2026-05-05 18:12 | 33.24012 | 138.51426 | 34234 ft | 389 kts | 244° |
| 2026-05-05 18:12 | 33.21594 | 138.45697 | 34234 ft | 389 kts | 244° |
| 2026-05-05 18:13 | 33.19154 | 138.39938 | 34233 ft | 387 kts | 244° |
| 2026-05-05 18:13 | 33.16720 | 138.34208 | 34233 ft | 387 kts | 244° |
| 2026-05-05 18:14 | 33.14291 | 138.28476 | 34234 ft | 387 kts | 244° |
| 2026-05-05 18:14 | 33.11854 | 138.22745 | 34234 ft | 387 kts | 244° |
| 2026-05-05 18:15 | 33.09410 | 138.17012 | 34229 ft | 388 kts | 244° |
| 2026-05-05 18:15 | 33.06960 | 138.11266 | 34228 ft | 389 kts | 244° |
| 2026-05-05 18:16 | 33.04506 | 138.05524 | 34231 ft | 389 kts | 244° |
| 2026-05-05 18:16 | 33.02043 | 137.99786 | 34231 ft | 389 kts | 244° |
| 2026-05-05 18:17 | 32.99581 | 137.94042 | 34231 ft | 389 kts | 244° |
| 2026-05-05 18:17 | 32.97115 | 137.88298 | 34228 ft | 390 kts | 244° |
| 2026-05-05 18:18 | 32.94642 | 137.82557 | 34228 ft | 390 kts | 244° |
| 2026-05-05 18:18 | 32.92181 | 137.76832 | 34229 ft | 391 kts | 244° |
| 2026-05-05 18:19 | 32.89699 | 137.71058 | 34232 ft | 392 kts | 244° |
| 2026-05-05 18:19 | 32.87199 | 137.65287 | 34228 ft | 392 kts | 244° |
| 2026-05-05 18:20 | 32.84697 | 137.59518 | 34229 ft | 393 kts | 244° |
| 2026-05-05 18:20 | 32.82196 | 137.53738 | 34225 ft | 393 kts | 243° |
| 2026-05-05 18:21 | 32.79691 | 137.47958 | 34226 ft | 393 kts | 243° |
| 2026-05-05 18:21 | 32.77175 | 137.42187 | 34226 ft | 393 kts | 243° |
| 2026-05-05 18:22 | 32.74661 | 137.36413 | 34228 ft | 394 kts | 243° |
| 2026-05-05 18:22 | 32.72149 | 137.30646 | 34228 ft | 394 kts | 243° |
| 2026-05-05 18:23 | 32.69611 | 137.24855 | 34225 ft | 395 kts | 243° |
| 2026-05-05 18:23 | 32.67093 | 137.19116 | 34224 ft | 395 kts | 243° |
| 2026-05-05 18:24 | 32.64564 | 137.13340 | 34224 ft | 395 kts | 243° |
| 2026-05-05 18:24 | 32.62032 | 137.07561 | 34223 ft | 395 kts | 243° |
| 2026-05-05 18:25 | 32.59493 | 137.01789 | 34224 ft | 395 kts | 243° |
| 2026-05-05 18:25 | 32.56945 | 136.96014 | 34219 ft | 395 kts | 243° |
| 2026-05-05 18:26 | 32.54393 | 136.90234 | 34226 ft | 396 kts | 243° |
| 2026-05-05 18:26 | 32.51839 | 136.84454 | 34219 ft | 396 kts | 243° |
| 2026-05-05 18:27 | 32.49280 | 136.78675 | 34218 ft | 396 kts | 243° |
| 2026-05-05 18:27 | 32.46716 | 136.72891 | 34215 ft | 397 kts | 243° |
| 2026-05-05 18:28 | 32.42875 | 136.64234 | 34215 ft | 398 kts | 243° |
| 2026-05-05 18:28 | 32.40291 | 136.58445 | 34214 ft | 398 kts | 242° |
| 2026-05-05 18:29 | 32.37711 | 136.52658 | 34214 ft | 398 kts | 242° |
| 2026-05-05 18:29 | 32.35132 | 136.46871 | 34208 ft | 398 kts | 242° |
| 2026-05-05 18:30 | 32.32544 | 136.41086 | 34211 ft | 398 kts | 242° |
| 2026-05-05 18:30 | 32.29947 | 136.35306 | 34210 ft | 398 kts | 242° |
| 2026-05-05 18:31 | 32.27346 | 136.29525 | 34203 ft | 399 kts | 242° |
| 2026-05-05 18:31 | 32.24747 | 136.23740 | 34202 ft | 399 kts | 242° |
| 2026-05-05 18:32 | 32.22144 | 136.17953 | 34203 ft | 399 kts | 242° |
| 2026-05-05 18:32 | 32.19556 | 136.12198 | 34204 ft | 400 kts | 242° |
| 2026-05-05 18:33 | 32.16935 | 136.06392 | 34203 ft | 401 kts | 242° |
| 2026-05-05 18:33 | 32.14306 | 136.00592 | 34196 ft | 401 kts | 242° |
| 2026-05-05 18:34 | 32.11679 | 135.94795 | 34196 ft | 401 kts | 242° |
| 2026-05-05 18:34 | 32.09038 | 135.88990 | 34195 ft | 402 kts | 242° |
| 2026-05-05 18:35 | 32.06399 | 135.83186 | 34195 ft | 402 kts | 242° |
| 2026-05-05 18:35 | 32.03758 | 135.77380 | 34201 ft | 402 kts | 242° |
| 2026-05-05 18:36 | 32.01562 | 135.72559 | 34193 ft | 402 kts | 242° |
| 2026-05-05 18:36 | 31.98915 | 135.66769 | 34190 ft | 402 kts | 242° |
| 2026-05-05 18:37 | 31.96270 | 135.60972 | 34191 ft | 401 kts | 242° |
| 2026-05-05 18:37 | 31.93620 | 135.55187 | 34191 ft | 402 kts | 242° |
| 2026-05-05 18:38 | 31.90534 | 135.48456 | 34187 ft | 402 kts | 242° |
| 2026-05-05 18:38 | 31.88316 | 135.43630 | 34185 ft | 402 kts | 242° |
| 2026-05-05 18:39 | 31.85647 | 135.37821 | 34184 ft | 402 kts | 241° |
| 2026-05-05 18:39 | 31.82996 | 135.32083 | 34183 ft | 402 kts | 241° |
| 2026-05-05 18:40 | 31.80324 | 135.26294 | 34181 ft | 402 kts | 241° |
| 2026-05-05 18:40 | 31.77657 | 135.20505 | 34179 ft | 402 kts | 241° |
| 2026-05-05 18:41 | 31.74978 | 135.14738 | 34180 ft | 403 kts | 241° |
| 2026-05-05 18:41 | 31.72295 | 135.08955 | 34179 ft | 403 kts | 241° |
| 2026-05-05 18:42 | 31.69427 | 135.03288 | 34179 ft | 403 kts | 238° |
| 2026-05-05 18:42 | 31.66303 | 134.97817 | 34179 ft | 403 kts | 236° |
| 2026-05-05 18:43 | 31.63160 | 134.92381 | 34179 ft | 402 kts | 237° |
| 2026-05-05 18:43 | 31.60088 | 134.86946 | 34181 ft | 402 kts | 237° |
| 2026-05-05 18:44 | 31.57022 | 134.81460 | 34169 ft | 403 kts | 237° |
| 2026-05-05 18:44 | 31.53956 | 134.75973 | 34179 ft | 403 kts | 237° |
| 2026-05-05 18:45 | 31.50865 | 134.70485 | 34176 ft | 403 kts | 237° |
| 2026-05-05 18:45 | 31.47768 | 134.65001 | 34173 ft | 403 kts | 237° |
| 2026-05-05 18:46 | 31.44698 | 134.59572 | 34176 ft | 404 kts | 236° |
| 2026-05-05 18:46 | 31.41585 | 134.54069 | 34170 ft | 404 kts | 236° |
| 2026-05-05 18:47 | 31.38489 | 134.48608 | 34170 ft | 404 kts | 236° |
| 2026-05-05 18:47 | 31.35386 | 134.43143 | 34158 ft | 404 kts | 236° |
| 2026-05-05 18:48 | 31.32290 | 134.37679 | 34164 ft | 404 kts | 236° |
| 2026-05-05 18:48 | 31.29190 | 134.32207 | 34165 ft | 404 kts | 236° |
| 2026-05-05 18:49 | 31.26089 | 134.26759 | 34166 ft | 404 kts | 236° |
| 2026-05-05 18:49 | 31.22960 | 134.21285 | 34169 ft | 405 kts | 235° |
| 2026-05-05 18:50 | 31.19833 | 134.15809 | 34165 ft | 405 kts | 235° |
| 2026-05-05 18:50 | 31.16695 | 134.10326 | 34163 ft | 405 kts | 235° |
| 2026-05-05 18:51 | 31.13583 | 134.04890 | 34164 ft | 406 kts | 235° |
| 2026-05-05 18:51 | 31.10428 | 133.99378 | 34163 ft | 407 kts | 235° |
| 2026-05-05 18:52 | 31.07338 | 133.94000 | 34161 ft | 407 kts | 235° |
| 2026-05-05 18:52 | 31.04143 | 133.88450 | 34158 ft | 408 kts | 235° |
| 2026-05-05 18:53 | 31.01028 | 133.83043 | 34159 ft | 408 kts | 235° |
| 2026-05-05 18:53 | 30.97872 | 133.77559 | 34155 ft | 408 kts | 234° |
| 2026-05-05 18:54 | 30.94714 | 133.72083 | 34155 ft | 408 kts | 234° |
| 2026-05-05 18:54 | 30.91545 | 133.66604 | 34150 ft | 408 kts | 234° |